WEATHER DATA

TODAY
Time Temp. Dewp. Hum. Bar. 1h Prec. 24h Prec.
00:01 13.5 5.7 59 1015.6 0.0000 0.0000
00:10 13.1 5.5 60 1015.5 0.0000 0.0000
00:31 12.6 6 64 1015.4 0.0000 0.0000
00:41 12.5 6.3 66 1015.4 0.0000 0.0000
00:52 12.3 6.1 66 1015.3 0.0000 0.0000
01:01 12.2 6.5 68 1015.3 0.0000 0.0000
01:11 12.1 7 71 1015.2 0.0000 0.0000
01:21 12.2 7.5 73 1015.4 0.0000 0.0000
01:32 11.9 7.2 73 1015.2 0.0000 0.0000
01:42 11.7 7.2 74 1015.2 0.0000 0.0000
01:52 11.6 7.5 76 1015.2 0.0000 0.0000
02:02 11.5 7.6 77 1015.3 0.0000 0.0000
02:12 11.5 7.4 76 1015.3 0.0000 0.0000
02:22 11.5 7.6 77 1015.2 0.0000 0.0000
02:32 11.5 7.6 77 1015.2 0.0000 0.0000
02:42 11.5 7.2 75 1015.1 0.0000 0.0000
02:52 11.4 7.3 76 1015.2 0.0000 0.0000
03:02 11.3 7 75 1015.1 0.0000 0.0000
03:13 11.1 6.6 74 1015 0.0000 0.0000
03:23 11.1 6.6 74 1014.9 0.0000 0.0000
03:33 11.1 6.2 72 1014.9 0.0000 0.0000
03:42 11.1 6.2 72 1014.9 0.0000 0.0000
03:53 11.2 5.9 70 1014.9 0.0000 0.0000
04:03 11.3 5.8 69 1014.9 0.0000 0.0000
04:13 11.4 5.7 68 1015.1 0.0000 0.0000
04:23 11.5 5.6 67 1015 0.0000 0.0000
04:33 11.6 5.7 67 1014.9 0.0000 0.0000
04:43 11.6 5.5 66 1015.1 0.0000 0.0000
04:53 11.8 5.4 65 1015.1 0.0000 0.0000
05:04 11.9 5.5 65 1015.3 0.0000 0.0000
05:14 11.8 5.4 65 1015.3 0.0000 0.0000
05:23 11.7 5.6 66 1015.4 0.0000 0.0000
05:34 11.6 5.5 66 1015.3 0.0000 0.0000
05:44 11.5 6 69 1015.5 0.0000 0.0000
05:54 11.1 6.6 74 1015.4 0.1010 0.1000
06:03 10.8 6.7 76 1015.4 0.1010 0.1000
06:14 10.7 6.8 77 1015.4 0.1010 0.1000
06:24 10.7 7 78 1015.5 0.1010 0.1000
06:34 10.7 7 78 1015.5 0.2020 0.2000
06:44 10.6 7.1 79 1015.5 0.1010 0.2000
06:54 10.5 7 79 1015.4 0.2020 0.3000
07:09 10.5 7.4 81 1015.4 0.3030 0.4000
07:19 10.4 7.3 81 1015.4 0.3030 0.4000
07:30 10.3 7.4 82 1015.4 0.3030 0.5000
07:39 10.3 7.4 82 1015.4 0.3030 0.5000
07:49 10.4 7.6 83 1015.4 0.3030 0.5000
08:00 10.4 7.6 83 1015.5 0.2020 0.5000
08:09 10.4 7.6 83 1015.4 0.1010 0.5000
08:20 10.5 7.6 82 1015.5 0.1010 0.5000
08:30 10.7 7.9 83 1015.4 0.0000 0.5000
08:40 10.9 8.1 83 1015.6 0.0000 0.5000
08:50 11.2 8.2 82 1015.6 0.0000 0.5000
09:00 11.6 8.6 82 1015.5 0.0000 0.5000
09:11 12.1 8.6 79 1015.6 0.0000 0.5000
09:20 12.6 9.1 79 1015.6 0.0000 0.5000
09:30 12.7 8.2 74 1015.7 0.0000 0.5000
09:40 12.7 8.2 74 1015.6 0.0000 0.5000
09:51 12.8 8.1 73 1015.5 0.0000 0.5000
10:00 12.9 8.4 74 1015.5 0.0000 0.5000
10:10 12.8 8.1 73 1015.6 0.0000 0.5000
10:21 12.7 8 73 1015.6 0.0000 0.5000
10:31 12.9 8.2 73 1015.5 0.0000 0.5000
10:41 13.2 8.3 72 1015.3 0.0000 0.5000
10:51 13.4 8.3 71 1015.4 0.0000 0.5000
11:01 13.5 7.9 69 1015.4 0.0000 0.5000
11:11 13.8 8.6 71 1015.4 0.0000 0.5000
11:21 14.2 8.6 69 1015.4 0.0000 0.5000
11:31 14.3 8.9 70 1015.4 0.0000 0.5000
11:41 14.4 9 70 1015.3 0.0000 0.5000
11:51 14.3 8.7 69 1015.4 0.0000 0.5000
12:01 14.1 8.5 69 1015.4 0.0000 0.5000
12:12 13.7 8.5 71 1015.4 0.0000 0.5000
12:21 13.5 8.6 72 1015.4 0.0000 0.5000
12:31 13.3 8.4 72 1015.4 0.0000 0.5000
12:42 12.8 8.3 74 1015.3 0.0000 0.5000
12:52 12.5 8.4 76 1015.3 0.2020 0.7000
12:58 12.3 8.6 78 1015.3 0.3030 0.8000
13:08 12.1 8.8 80 1015.4 0.6060 1.1000
13:17 11.9 8.7 81 1015.4 1.1110 1.6000
13:28 11.7 8.9 83 1015.2 1.6160 2.1000
13:38 11.6 9 84 1015.3 2.0200 2.5000
13:48 11.6 9.2 85 1015.4 2.0200 2.7000
13:59 11.7 9.3 85 1015.3 1.8180 2.7000
14:08 11.8 9.4 85 1015.3 1.6160 2.9000
14:18 11.8 9.4 85 1015.2 1.2120 3.1000
14:28 11.8 9.5 86 1015.1 1.0100 3.3000
14:39 11.9 9.6 86 1015.1 0.8080 3.3000
14:49 12.1 10 87 1015 0.6060 3.3000
14:58 12.2 9.8 85 1014.8 0.5050 3.3000
15:09 12.2 9.9 86 1014.8 0.3030 3.3000
15:19 12.4 10 85 1014.8 0.1010 3.3000
15:29 12.6 10.1 85 1014.7 0.0000 3.3000
15:38 12.7 10.1 84 1014.6 0.0000 3.3000
15:49 12.9 10.1 83 1014.5 0.0000 3.3000
15:59 12.9 9.9 82 1014.4 0.0000 3.3000
16:09 12.9 10.1 83 1014.4 0.0000 3.3000
16:20 12.9 9.9 82 1014.4 0.0000 3.3000
16:29 12.8 10 83 1014.5 0.0000 3.3000
16:39 12.8 10.2 84 1014.4 0.0000 3.3000
16:49 12.8 10.2 84 1014.4 0.0000 3.3000
17:00 12.8 10.2 84 1014.4 0.0000 3.3000
17:10 12.7 9.9 83 1014.4 0.0000 3.3000
17:19 12.5 9.9 84 1014.1 0.0000 3.3000
17:30 12.4 10 85 1014.1 0.0000 3.3000
17:40 12.4 10 85 1014 0.0000 3.3000
17:50 12.4 10.1 86 1013.9 0.1010 3.4000
18:00 12.5 10.2 86 1013.9 0.1010 3.4000

DAY STATISTIC

2020-06-03
TEMPERATURE
AVERAGE
12.0
HIGH
14.4
11:41
LOW
10.3
07:30
PRESSURE
AVERAGE
1015.2
HIGH
1015.7
09:30
LOW
1013.9
17:50
DEWPOINT
AVERAGE
8.0
HIGH
10.2
16:39
LOW
5.4
04:53
HUMIDITY
AVERAGE
76
HIGH
87
14:49
LOW
59
00:01
PRECIPITATION
RAIN HOUR
2.0
RAIN DAY
3.4
TEMPERATURE (°C)
LOW
10.3
HIGH
14.4
AVERAGE
12.0
PRESSURE (hpa)
LOW
1013.9
HIGH
1015.7
AVERAGE
1015.2
DEVICE